sensor_id;sensor_type;location;lat;lon;timestamp;temperature;humidity
6379;DHT22;3222;48.858;10.128;2022-11-15T00:01:52;10.70;99.90
6379;DHT22;3222;48.858;10.128;2022-11-15T00:04:36;10.70;99.90
6379;DHT22;3222;48.858;10.128;2022-11-15T00:07:20;10.70;99.90
6379;DHT22;3222;48.858;10.128;2022-11-15T00:10:04;10.50;99.90
6379;DHT22;3222;48.858;10.128;2022-11-15T00:12:48;10.50;99.90
6379;DHT22;3222;48.858;10.128;2022-11-15T00:15:35;10.50;99.90
6379;DHT22;3222;48.858;10.128;2022-11-15T00:18:20;10.50;99.90
6379;DHT22;3222;48.858;10.128;2022-11-15T00:21:10;10.40;99.90
6379;DHT22;3222;48.858;10.128;2022-11-15T00:23:54;10.40;99.90
6379;DHT22;3222;48.858;10.128;2022-11-15T00:26:38;10.40;99.90
6379;DHT22;3222;48.858;10.128;2022-11-15T00:29:23;10.40;99.90
6379;DHT22;3222;48.858;10.128;2022-11-15T00:32:07;10.50;99.90
6379;DHT22;3222;48.858;10.128;2022-11-15T00:34:51;10.70;99.90
6379;DHT22;3222;48.858;10.128;2022-11-15T00:37:35;10.70;99.90
6379;DHT22;3222;48.858;10.128;2022-11-15T00:40:19;10.40;99.90
6379;DHT22;3222;48.858;10.128;2022-11-15T00:43:03;10.30;99.90
6379;DHT22;3222;48.858;10.128;2022-11-15T00:45:47;10.30;99.90
6379;DHT22;3222;48.858;10.128;2022-11-15T00:48:31;10.30;99.90
6379;DHT22;3222;48.858;10.128;2022-11-15T00:51:16;10.20;99.90
6379;DHT22;3222;48.858;10.128;2022-11-15T00:54:00;10.30;99.90
6379;DHT22;3222;48.858;10.128;2022-11-15T00:56:44;10.20;99.90
6379;DHT22;3222;48.858;10.128;2022-11-15T00:59:29;10.30;99.90
6379;DHT22;3222;48.858;10.128;2022-11-15T01:02:13;10.20;99.90
6379;DHT22;3222;48.858;10.128;2022-11-15T01:04:57;10.10;99.90
6379;DHT22;3222;48.858;10.128;2022-11-15T01:07:42;10.10;99.90
6379;DHT22;3222;48.858;10.128;2022-11-15T01:10:26;10.00;99.90
6379;DHT22;3222;48.858;10.128;2022-11-15T01:13:10;10.00;99.90
6379;DHT22;3222;48.858;10.128;2022-11-15T01:15:54;10.00;99.90
6379;DHT22;3222;48.858;10.128;2022-11-15T01:18:39;10.00;99.90
6379;DHT22;3222;48.858;10.128;2022-11-15T01:21:24;10.00;99.90
6379;DHT22;3222;48.858;10.128;2022-11-15T01:24:12;10.00;99.90
6379;DHT22;3222;48.858;10.128;2022-11-15T01:26:56;10.10;99.90
6379;DHT22;3222;48.858;10.128;2022-11-15T01:29:40;10.10;99.90
6379;DHT22;3222;48.858;10.128;2022-11-15T01:32:24;10.10;99.90
6379;DHT22;3222;48.858;10.128;2022-11-15T01:35:08;10.30;99.90
6379;DHT22;3222;48.858;10.128;2022-11-15T01:37:52;10.20;99.90
6379;DHT22;3222;48.858;10.128;2022-11-15T01:40:36;10.20;99.90
6379;DHT22;3222;48.858;10.128;2022-11-15T01:43:26;10.30;99.90
6379;DHT22;3222;48.858;10.128;2022-11-15T01:49:17;10.20;99.90
6379;DHT22;3222;48.858;10.128;2022-11-15T01:52:05;10.20;99.90
6379;DHT22;3222;48.858;10.128;2022-11-15T01:55:06;10.20;99.90
6379;DHT22;3222;48.858;10.128;2022-11-15T01:57:56;10.10;99.90
6379;DHT22;3222;48.858;10.128;2022-11-15T02:00:42;10.00;99.90
6379;DHT22;3222;48.858;10.128;2022-11-15T02:03:39;10.10;99.90
6379;DHT22;3222;48.858;10.128;2022-11-15T02:06:26;10.20;99.90
6379;DHT22;3222;48.858;10.128;2022-11-15T02:09:11;10.30;99.90
6379;DHT22;3222;48.858;10.128;2022-11-15T02:11:56;10.40;99.90
6379;DHT22;3222;48.858;10.128;2022-11-15T02:14:43;10.40;99.90
6379;DHT22;3222;48.858;10.128;2022-11-15T02:20:28;10.40;99.90
6379;DHT22;3222;48.858;10.128;2022-11-15T02:30:18;10.10;99.90
6379;DHT22;3222;48.858;10.128;2022-11-15T02:36:35;10.20;99.90
6379;DHT22;3222;48.858;10.128;2022-11-15T02:42:09;10.00;99.90
6379;DHT22;3222;48.858;10.128;2022-11-15T02:45:23;9.90;99.90
6379;DHT22;3222;48.858;10.128;2022-11-15T02:48:09;9.90;99.90
6379;DHT22;3222;48.858;10.128;2022-11-15T02:50:54;9.90;99.90
6379;DHT22;3222;48.858;10.128;2022-11-15T02:53:39;9.80;99.90
6379;DHT22;3222;48.858;10.128;2022-11-15T02:56:23;9.90;99.90
6379;DHT22;3222;48.858;10.128;2022-11-15T02:59:29;9.80;99.90
6379;DHT22;3222;48.858;10.128;2022-11-15T03:08:31;9.90;99.90
6379;DHT22;3222;48.858;10.128;2022-11-15T03:11:19;9.90;99.90
6379;DHT22;3222;48.858;10.128;2022-11-15T03:14:23;9.80;99.90
6379;DHT22;3222;48.858;10.128;2022-11-15T03:17:23;9.80;99.90
6379;DHT22;3222;48.858;10.128;2022-11-15T03:20:11;9.80;99.90
6379;DHT22;3222;48.858;10.128;2022-11-15T03:23:03;9.80;99.90
6379;DHT22;3222;48.858;10.128;2022-11-15T03:25:50;9.80;99.90
6379;DHT22;3222;48.858;10.128;2022-11-15T03:28:50;9.90;99.90
6379;DHT22;3222;48.858;10.128;2022-11-15T03:31:37;9.90;99.90
6379;DHT22;3222;48.858;10.128;2022-11-15T03:34:50;9.90;99.90
6379;DHT22;3222;48.858;10.128;2022-11-15T03:40:39;9.90;99.90
6379;DHT22;3222;48.858;10.128;2022-11-15T03:46:31;9.80;99.90
6379;DHT22;3222;48.858;10.128;2022-11-15T03:49:29;9.70;99.90
6379;DHT22;3222;48.858;10.128;2022-11-15T03:52:18;9.70;99.90
6379;DHT22;3222;48.858;10.128;2022-11-15T03:55:04;9.60;99.90
6379;DHT22;3222;48.858;10.128;2022-11-15T03:57:52;9.70;99.90
6379;DHT22;3222;48.858;10.128;2022-11-15T04:00:37;9.70;99.90
6379;DHT22;3222;48.858;10.128;2022-11-15T04:03:21;9.60;99.90
6379;DHT22;3222;48.858;10.128;2022-11-15T04:06:05;9.60;99.90
6379;DHT22;3222;48.858;10.128;2022-11-15T04:08:50;9.50;99.90
6379;DHT22;3222;48.858;10.128;2022-11-15T04:11:34;9.60;99.90
6379;DHT22;3222;48.858;10.128;2022-11-15T04:14:18;9.50;99.90
6379;DHT22;3222;48.858;10.128;2022-11-15T04:17:02;9.60;99.90
6379;DHT22;3222;48.858;10.128;2022-11-15T04:19:46;9.60;99.90
6379;DHT22;3222;48.858;10.128;2022-11-15T04:22:51;9.50;99.90
6379;DHT22;3222;48.858;10.128;2022-11-15T04:25:56;9.40;99.90
6379;DHT22;3222;48.858;10.128;2022-11-15T04:28:41;9.50;99.90
6379;DHT22;3222;48.858;10.128;2022-11-15T04:31:45;9.40;99.90
6379;DHT22;3222;48.858;10.128;2022-11-15T04:34:29;9.40;99.90
6379;DHT22;3222;48.858;10.128;2022-11-15T04:37:13;9.40;99.90
6379;DHT22;3222;48.858;10.128;2022-11-15T04:39:58;9.50;99.90
6379;DHT22;3222;48.858;10.128;2022-11-15T04:42:42;9.60;99.90
6379;DHT22;3222;48.858;10.128;2022-11-15T04:45:26;9.60;99.90
6379;DHT22;3222;48.858;10.128;2022-11-15T04:48:10;9.70;99.90
6379;DHT22;3222;48.858;10.128;2022-11-15T04:50:54;9.80;99.90
6379;DHT22;3222;48.858;10.128;2022-11-15T04:53:38;9.80;99.90
6379;DHT22;3222;48.858;10.128;2022-11-15T04:56:23;9.80;99.90
6379;DHT22;3222;48.858;10.128;2022-11-15T04:59:07;9.90;99.90
6379;DHT22;3222;48.858;10.128;2022-11-15T05:01:51;9.90;99.90
6379;DHT22;3222;48.858;10.128;2022-11-15T05:04:35;9.90;99.90
6379;DHT22;3222;48.858;10.128;2022-11-15T05:07:19;10.00;99.90
6379;DHT22;3222;48.858;10.128;2022-11-15T05:10:04;10.00;99.90
6379;DHT22;3222;48.858;10.128;2022-11-15T05:12:48;9.90;99.90
6379;DHT22;3222;48.858;10.128;2022-11-15T05:15:32;9.70;99.90
6379;DHT22;3222;48.858;10.128;2022-11-15T05:18:16;9.60;99.90
6379;DHT22;3222;48.858;10.128;2022-11-15T05:21:08;9.50;99.90
6379;DHT22;3222;48.858;10.128;2022-11-15T05:23:53;9.70;99.90
6379;DHT22;3222;48.858;10.128;2022-11-15T05:26:37;9.70;99.90
6379;DHT22;3222;48.858;10.128;2022-11-15T05:29:21;9.70;99.90
6379;DHT22;3222;48.858;10.128;2022-11-15T05:32:06;9.60;99.90
6379;DHT22;3222;48.858;10.128;2022-11-15T05:34:52;9.60;99.90
6379;DHT22;3222;48.858;10.128;2022-11-15T05:37:36;9.70;99.90
6379;DHT22;3222;48.858;10.128;2022-11-15T05:40:20;9.90;99.90
6379;DHT22;3222;48.858;10.128;2022-11-15T05:43:05;10.10;99.90
6379;DHT22;3222;48.858;10.128;2022-11-15T05:45:49;10.00;99.90
6379;DHT22;3222;48.858;10.128;2022-11-15T05:48:34;9.80;99.90
6379;DHT22;3222;48.858;10.128;2022-11-15T05:51:21;9.80;99.90
6379;DHT22;3222;48.858;10.128;2022-11-15T05:54:06;9.80;99.90
6379;DHT22;3222;48.858;10.128;2022-11-15T05:56:50;9.60;99.90
6379;DHT22;3222;48.858;10.128;2022-11-15T05:59:35;9.50;99.90
6379;DHT22;3222;48.858;10.128;2022-11-15T06:02:20;9.60;99.90
6379;DHT22;3222;48.858;10.128;2022-11-15T06:05:04;9.70;99.90
6379;DHT22;3222;48.858;10.128;2022-11-15T06:07:48;9.90;99.90
6379;DHT22;3222;48.858;10.128;2022-11-15T06:10:33;9.80;99.90
6379;DHT22;3222;48.858;10.128;2022-11-15T06:13:17;9.80;99.90
6379;DHT22;3222;48.858;10.128;2022-11-15T06:16:01;9.70;99.90
6379;DHT22;3222;48.858;10.128;2022-11-15T06:18:45;9.60;99.90
6379;DHT22;3222;48.858;10.128;2022-11-15T06:21:29;9.50;99.90
6379;DHT22;3222;48.858;10.128;2022-11-15T06:24:13;9.70;99.90
6379;DHT22;3222;48.858;10.128;2022-11-15T06:26:57;9.70;99.90
6379;DHT22;3222;48.858;10.128;2022-11-15T06:29:42;9.80;99.90
6379;DHT22;3222;48.858;10.128;2022-11-15T06:32:28;9.70;99.90
6379;DHT22;3222;48.858;10.128;2022-11-15T06:35:14;9.80;99.90
6379;DHT22;3222;48.858;10.128;2022-11-15T06:38:03;9.90;99.90
6379;DHT22;3222;48.858;10.128;2022-11-15T06:40:48;9.80;99.90
6379;DHT22;3222;48.858;10.128;2022-11-15T06:43:33;9.50;99.90
6379;DHT22;3222;48.858;10.128;2022-11-15T06:46:17;9.60;99.90
6379;DHT22;3222;48.858;10.128;2022-11-15T06:49:01;9.70;99.90
6379;DHT22;3222;48.858;10.128;2022-11-15T06:51:46;9.60;99.90
6379;DHT22;3222;48.858;10.128;2022-11-15T06:54:30;9.40;99.90
6379;DHT22;3222;48.858;10.128;2022-11-15T06:57:14;9.40;99.90
6379;DHT22;3222;48.858;10.128;2022-11-15T06:59:58;9.40;99.90
6379;DHT22;3222;48.858;10.128;2022-11-15T07:02:42;9.50;99.90
6379;DHT22;3222;48.858;10.128;2022-11-15T07:05:27;9.70;99.90
6379;DHT22;3222;48.858;10.128;2022-11-15T07:08:11;9.70;99.90
6379;DHT22;3222;48.858;10.128;2022-11-15T07:11:00;9.80;99.90
6379;DHT22;3222;48.858;10.128;2022-11-15T07:13:45;9.90;99.90
6379;DHT22;3222;48.858;10.128;2022-11-15T07:16:29;9.60;99.90
6379;DHT22;3222;48.858;10.128;2022-11-15T07:19:13;9.50;99.90
6379;DHT22;3222;48.858;10.128;2022-11-15T07:21:57;9.50;99.90
6379;DHT22;3222;48.858;10.128;2022-11-15T07:24:41;9.40;99.90
6379;DHT22;3222;48.858;10.128;2022-11-15T07:27:25;9.40;99.90
6379;DHT22;3222;48.858;10.128;2022-11-15T07:30:10;9.50;99.90
6379;DHT22;3222;48.858;10.128;2022-11-15T07:32:59;9.60;99.90
6379;DHT22;3222;48.858;10.128;2022-11-15T07:35:44;9.50;99.90
6379;DHT22;3222;48.858;10.128;2022-11-15T07:38:33;9.40;99.90
6379;DHT22;3222;48.858;10.128;2022-11-15T07:41:18;9.50;99.90
6379;DHT22;3222;48.858;10.128;2022-11-15T07:44:02;9.50;99.90
6379;DHT22;3222;48.858;10.128;2022-11-15T07:46:46;9.40;99.90
6379;DHT22;3222;48.858;10.128;2022-11-15T07:49:30;9.40;99.90
6379;DHT22;3222;48.858;10.128;2022-11-15T07:52:14;9.40;99.90
6379;DHT22;3222;48.858;10.128;2022-11-15T07:54:58;9.40;99.90
6379;DHT22;3222;48.858;10.128;2022-11-15T07:57:43;9.40;99.90
6379;DHT22;3222;48.858;10.128;2022-11-15T08:00:27;9.40;99.90
6379;DHT22;3222;48.858;10.128;2022-11-15T08:03:13;9.60;99.90
6379;DHT22;3222;48.858;10.128;2022-11-15T08:05:57;9.70;99.90
6379;DHT22;3222;48.858;10.128;2022-11-15T08:08:41;9.60;99.90
6379;DHT22;3222;48.858;10.128;2022-11-15T08:11:25;9.60;99.90
6379;DHT22;3222;48.858;10.128;2022-11-15T08:14:09;9.70;99.90
6379;DHT22;3222;48.858;10.128;2022-11-15T08:16:54;9.80;99.90
6379;DHT22;3222;48.858;10.128;2022-11-15T08:19:39;9.90;99.90
6379;DHT22;3222;48.858;10.128;2022-11-15T08:22:23;9.80;99.90
6379;DHT22;3222;48.858;10.128;2022-11-15T08:25:07;9.70;99.90
6379;DHT22;3222;48.858;10.128;2022-11-15T08:27:52;9.80;99.90
6379;DHT22;3222;48.858;10.128;2022-11-15T08:30:38;9.80;99.90
6379;DHT22;3222;48.858;10.128;2022-11-15T08:33:25;9.80;99.90
6379;DHT22;3222;48.858;10.128;2022-11-15T08:36:14;9.80;99.90
6379;DHT22;3222;48.858;10.128;2022-11-15T08:38:58;10.00;99.90
6379;DHT22;3222;48.858;10.128;2022-11-15T08:41:43;10.20;99.90
6379;DHT22;3222;48.858;10.128;2022-11-15T08:44:28;10.60;99.90
6379;DHT22;3222;48.858;10.128;2022-11-15T08:47:12;10.80;99.90
6379;DHT22;3222;48.858;10.128;2022-11-15T08:49:58;10.80;99.90
6379;DHT22;3222;48.858;10.128;2022-11-15T08:52:42;10.80;99.90
6379;DHT22;3222;48.858;10.128;2022-11-15T08:55:26;10.80;99.90
6379;DHT22;3222;48.858;10.128;2022-11-15T08:58:10;10.70;99.90
6379;DHT22;3222;48.858;10.128;2022-11-15T09:00:54;10.70;99.90
6379;DHT22;3222;48.858;10.128;2022-11-15T09:03:40;10.80;99.90
6379;DHT22;3222;48.858;10.128;2022-11-15T09:06:24;11.00;99.90
6379;DHT22;3222;48.858;10.128;2022-11-15T09:09:08;11.00;99.90
6379;DHT22;3222;48.858;10.128;2022-11-15T09:11:52;11.00;99.90
6379;DHT22;3222;48.858;10.128;2022-11-15T09:14:36;11.10;99.90
6379;DHT22;3222;48.858;10.128;2022-11-15T09:17:20;11.10;99.90
6379;DHT22;3222;48.858;10.128;2022-11-15T09:20:05;11.10;99.90
6379;DHT22;3222;48.858;10.128;2022-11-15T09:22:49;11.10;99.90
6379;DHT22;3222;48.858;10.128;2022-11-15T09:25:34;11.20;99.90
6379;DHT22;3222;48.858;10.128;2022-11-15T09:28:18;11.40;99.90
6379;DHT22;3222;48.858;10.128;2022-11-15T09:31:05;11.80;99.90
6379;DHT22;3222;48.858;10.128;2022-11-15T09:33:50;12.00;99.90
6379;DHT22;3222;48.858;10.128;2022-11-15T09:36:34;12.20;99.90
6379;DHT22;3222;48.858;10.128;2022-11-15T09:39:18;12.20;99.90
6379;DHT22;3222;48.858;10.128;2022-11-15T09:48:31;12.60;99.90
6379;DHT22;3222;48.858;10.128;2022-11-15T09:54:00;12.70;99.90
6379;DHT22;3222;48.858;10.128;2022-11-15T09:56:31;12.70;99.90
6379;DHT22;3222;48.858;10.128;2022-11-15T10:04:29;12.80;99.90
6379;DHT22;3222;48.858;10.128;2022-11-15T10:12:15;12.80;99.90
6379;DHT22;3222;48.858;10.128;2022-11-15T10:14:41;12.80;99.90
6379;DHT22;3222;48.858;10.128;2022-11-15T10:22:48;12.90;99.90
6379;DHT22;3222;48.858;10.128;2022-11-15T10:25:26;12.90;99.90
6379;DHT22;3222;48.858;10.128;2022-11-15T10:30:46;12.90;99.90
6379;DHT22;3222;48.858;10.128;2022-11-15T10:33:35;12.90;99.90
6379;DHT22;3222;48.858;10.128;2022-11-15T10:41:31;12.90;99.90
6379;DHT22;3222;48.858;10.128;2022-11-15T10:44:19;12.90;99.90
6379;DHT22;3222;48.858;10.128;2022-11-15T10:49:28;13.00;99.90
6379;DHT22;3222;48.858;10.128;2022-11-15T10:51:55;13.00;99.90
6379;DHT22;3222;48.858;10.128;2022-11-15T10:54:37;13.00;99.90
6379;DHT22;3222;48.858;10.128;2022-11-15T10:57:17;13.00;99.90
6379;DHT22;3222;48.858;10.128;2022-11-15T10:59:49;13.00;99.90
6379;DHT22;3222;48.858;10.128;2022-11-15T11:04:54;13.00;99.90
6379;DHT22;3222;48.858;10.128;2022-11-15T11:07:25;12.90;99.90
6379;DHT22;3222;48.858;10.128;2022-11-15T11:10:31;12.90;99.90
6379;DHT22;3222;48.858;10.128;2022-11-15T11:12:50;12.90;99.90
6379;DHT22;3222;48.858;10.128;2022-11-15T11:15:16;12.90;99.90
6379;DHT22;3222;48.858;10.128;2022-11-15T11:18:06;12.90;99.90
6379;DHT22;3222;48.858;10.128;2022-11-15T11:20:46;13.00;99.90
6379;DHT22;3222;48.858;10.128;2022-11-15T11:26:29;12.90;99.90
6379;DHT22;3222;48.858;10.128;2022-11-15T11:34:50;12.90;99.90
6379;DHT22;3222;48.858;10.128;2022-11-15T11:40:36;12.80;99.90
6379;DHT22;3222;48.858;10.128;2022-11-15T11:51:20;12.90;99.90
6379;DHT22;3222;48.858;10.128;2022-11-15T11:53:57;12.80;99.90
6379;DHT22;3222;48.858;10.128;2022-11-15T11:56:29;12.80;99.90
6379;DHT22;3222;48.858;10.128;2022-11-15T12:01:51;12.80;99.90
6379;DHT22;3222;48.858;10.128;2022-11-15T12:04:21;12.90;99.90
6379;DHT22;3222;48.858;10.128;2022-11-15T12:07:01;12.80;99.90
6379;DHT22;3222;48.858;10.128;2022-11-15T12:09:44;12.80;99.90
6379;DHT22;3222;48.858;10.128;2022-11-15T12:12:38;13.00;99.90
6379;DHT22;3222;48.858;10.128;2022-11-15T12:15:13;13.00;99.90
6379;DHT22;3222;48.858;10.128;2022-11-15T12:17:41;12.80;99.90
6379;DHT22;3222;48.858;10.128;2022-11-15T12:20:22;12.80;99.90
6379;DHT22;3222;48.858;10.128;2022-11-15T12:22:59;12.80;99.90
6379;DHT22;3222;48.858;10.128;2022-11-15T12:28:25;12.80;99.90
6379;DHT22;3222;48.858;10.128;2022-11-15T12:31:00;12.80;99.90
6379;DHT22;3222;48.858;10.128;2022-11-15T12:33:45;12.80;99.90
6379;DHT22;3222;48.858;10.128;2022-11-15T12:36:32;12.80;99.90
6379;DHT22;3222;48.858;10.128;2022-11-15T12:39:03;12.70;99.90
6379;DHT22;3222;48.858;10.128;2022-11-15T12:41:30;12.80;99.90
6379;DHT22;3222;48.858;10.128;2022-11-15T12:43:57;13.00;99.90
6379;DHT22;3222;48.858;10.128;2022-11-15T13:02:40;13.20;99.90
6379;DHT22;3222;48.858;10.128;2022-11-15T13:22:58;13.00;99.90
6379;DHT22;3222;48.858;10.128;2022-11-15T13:28:22;12.80;99.90
6379;DHT22;3222;48.858;10.128;2022-11-15T13:31:21;12.80;99.90
6379;DHT22;3222;48.858;10.128;2022-11-15T13:33:40;12.80;99.90
6379;DHT22;3222;48.858;10.128;2022-11-15T13:36:13;12.90;99.90
6379;DHT22;3222;48.858;10.128;2022-11-15T13:38:43;12.90;99.90
6379;DHT22;3222;48.858;10.128;2022-11-15T13:41:25;12.90;99.90
6379;DHT22;3222;48.858;10.128;2022-11-15T13:43:52;12.90;99.90
6379;DHT22;3222;48.858;10.128;2022-11-15T13:46:44;12.90;99.90
6379;DHT22;3222;48.858;10.128;2022-11-15T13:49:10;12.80;99.90
6379;DHT22;3222;48.858;10.128;2022-11-15T13:51:50;12.90;99.90
6379;DHT22;3222;48.858;10.128;2022-11-15T13:57:00;12.80;99.90
6379;DHT22;3222;48.858;10.128;2022-11-15T13:59:33;12.70;99.90
6379;DHT22;3222;48.858;10.128;2022-11-15T14:02:03;12.80;99.90
6379;DHT22;3222;48.858;10.128;2022-11-15T14:04:38;12.80;99.90
6379;DHT22;3222;48.858;10.128;2022-11-15T14:07:04;12.70;99.90
6379;DHT22;3222;48.858;10.128;2022-11-15T14:11:59;12.60;99.90
6379;DHT22;3222;48.858;10.128;2022-11-15T14:14:26;12.60;99.90
6379;DHT22;3222;48.858;10.128;2022-11-15T14:16:58;12.60;99.90
6379;DHT22;3222;48.858;10.128;2022-11-15T14:24:43;12.50;99.90
6379;DHT22;3222;48.858;10.128;2022-11-15T14:27:24;12.70;99.90
6379;DHT22;3222;48.858;10.128;2022-11-15T14:29:50;12.90;99.90
6379;DHT22;3222;48.858;10.128;2022-11-15T14:32:24;13.00;99.90
6379;DHT22;3222;48.858;10.128;2022-11-15T14:35:01;13.10;99.90
6379;DHT22;3222;48.858;10.128;2022-11-15T14:37:32;13.10;99.90
6379;DHT22;3222;48.858;10.128;2022-11-15T14:40:01;13.10;99.90
6379;DHT22;3222;48.858;10.128;2022-11-15T14:42:27;13.10;99.90
6379;DHT22;3222;48.858;10.128;2022-11-15T14:44:54;13.10;99.90
6379;DHT22;3222;48.858;10.128;2022-11-15T14:47:19;13.10;99.90
6379;DHT22;3222;48.858;10.128;2022-11-15T14:49:45;12.90;99.90
6379;DHT22;3222;48.858;10.128;2022-11-15T14:52:29;13.00;99.90
6379;DHT22;3222;48.858;10.128;2022-11-15T14:54:55;13.00;99.90
6379;DHT22;3222;48.858;10.128;2022-11-15T14:57:22;12.80;99.90
6379;DHT22;3222;48.858;10.128;2022-11-15T14:59:47;12.80;99.90
6379;DHT22;3222;48.858;10.128;2022-11-15T15:02:21;12.60;99.90
6379;DHT22;3222;48.858;10.128;2022-11-15T15:04:48;12.60;99.90
6379;DHT22;3222;48.858;10.128;2022-11-15T15:07:14;12.50;99.90
6379;DHT22;3222;48.858;10.128;2022-11-15T15:09:41;12.60;99.90
6379;DHT22;3222;48.858;10.128;2022-11-15T15:14:42;12.50;99.90
6379;DHT22;3222;48.858;10.128;2022-11-15T15:17:08;12.60;99.90
6379;DHT22;3222;48.858;10.128;2022-11-15T15:19:33;12.50;99.90
6379;DHT22;3222;48.858;10.128;2022-11-15T15:21:59;12.40;99.90
6379;DHT22;3222;48.858;10.128;2022-11-15T15:24:25;12.40;99.90
6379;DHT22;3222;48.858;10.128;2022-11-15T15:26:51;12.30;99.90
6379;DHT22;3222;48.858;10.128;2022-11-15T15:29:16;12.40;99.90
6379;DHT22;3222;48.858;10.128;2022-11-15T15:31:42;12.60;99.90
6379;DHT22;3222;48.858;10.128;2022-11-15T15:34:07;12.60;99.90
6379;DHT22;3222;48.858;10.128;2022-11-15T15:36:33;12.50;99.90
6379;DHT22;3222;48.858;10.128;2022-11-15T15:38:59;12.70;99.90
6379;DHT22;3222;48.858;10.128;2022-11-15T15:41:24;12.60;99.90
6379;DHT22;3222;48.858;10.128;2022-11-15T15:43:50;12.60;99.90
6379;DHT22;3222;48.858;10.128;2022-11-15T15:46:18;12.70;99.90
6379;DHT22;3222;48.858;10.128;2022-11-15T15:48:45;12.50;99.90
6379;DHT22;3222;48.858;10.128;2022-11-15T15:51:11;12.50;99.90
6379;DHT22;3222;48.858;10.128;2022-11-15T15:53:37;12.40;99.90
6379;DHT22;3222;48.858;10.128;2022-11-15T15:56:03;12.40;99.90
6379;DHT22;3222;48.858;10.128;2022-11-15T15:58:29;12.50;99.90
6379;DHT22;3222;48.858;10.128;2022-11-15T16:00:57;12.40;99.90
6379;DHT22;3222;48.858;10.128;2022-11-15T16:03:23;12.40;99.90
6379;DHT22;3222;48.858;10.128;2022-11-15T16:05:50;12.40;99.90
6379;DHT22;3222;48.858;10.128;2022-11-15T16:08:20;12.30;99.90
6379;DHT22;3222;48.858;10.128;2022-11-15T16:10:47;12.20;99.90
6379;DHT22;3222;48.858;10.128;2022-11-15T16:13:13;12.20;99.90
6379;DHT22;3222;48.858;10.128;2022-11-15T16:15:39;12.30;99.90
6379;DHT22;3222;48.858;10.128;2022-11-15T16:18:06;12.40;99.90
6379;DHT22;3222;48.858;10.128;2022-11-15T16:20:44;12.40;99.90
6379;DHT22;3222;48.858;10.128;2022-11-15T16:23:12;12.50;99.90
6379;DHT22;3222;48.858;10.128;2022-11-15T16:28:26;12.40;99.90
6379;DHT22;3222;48.858;10.128;2022-11-15T16:31:04;12.30;99.90
6379;DHT22;3222;48.858;10.128;2022-11-15T16:33:30;12.30;99.90
6379;DHT22;3222;48.858;10.128;2022-11-15T16:35:56;12.30;99.90
6379;DHT22;3222;48.858;10.128;2022-11-15T16:38:21;12.20;99.90
6379;DHT22;3222;48.858;10.128;2022-11-15T16:40:47;12.20;99.90
6379;DHT22;3222;48.858;10.128;2022-11-15T16:43:13;12.20;99.90
6379;DHT22;3222;48.858;10.128;2022-11-15T16:45:39;12.10;99.90
6379;DHT22;3222;48.858;10.128;2022-11-15T16:48:05;12.10;99.90
6379;DHT22;3222;48.858;10.128;2022-11-15T16:50:33;12.10;99.90
6379;DHT22;3222;48.858;10.128;2022-11-15T16:53:05;12.00;99.90
6379;DHT22;3222;48.858;10.128;2022-11-15T16:55:31;12.00;99.90
6379;DHT22;3222;48.858;10.128;2022-11-15T16:57:57;12.10;99.90
6379;DHT22;3222;48.858;10.128;2022-11-15T17:00:24;12.10;99.90
6379;DHT22;3222;48.858;10.128;2022-11-15T17:02:50;12.00;99.90
6379;DHT22;3222;48.858;10.128;2022-11-15T17:05:18;11.90;99.90
6379;DHT22;3222;48.858;10.128;2022-11-15T17:07:47;11.90;99.90
6379;DHT22;3222;48.858;10.128;2022-11-15T17:10:15;11.90;99.90
6379;DHT22;3222;48.858;10.128;2022-11-15T17:12:41;11.90;99.90
6379;DHT22;3222;48.858;10.128;2022-11-15T17:15:07;11.90;99.90
6379;DHT22;3222;48.858;10.128;2022-11-15T17:17:33;11.80;99.90
6379;DHT22;3222;48.858;10.128;2022-11-15T17:19:58;11.80;99.90
6379;DHT22;3222;48.858;10.128;2022-11-15T17:22:24;11.70;99.90
6379;DHT22;3222;48.858;10.128;2022-11-15T17:24:50;11.60;99.90
6379;DHT22;3222;48.858;10.128;2022-11-15T17:27:15;11.60;99.90
6379;DHT22;3222;48.858;10.128;2022-11-15T17:29:42;11.50;99.90
6379;DHT22;3222;48.858;10.128;2022-11-15T17:32:08;11.50;99.90
6379;DHT22;3222;48.858;10.128;2022-11-15T17:34:34;11.60;99.90
6379;DHT22;3222;48.858;10.128;2022-11-15T17:36:59;11.70;99.90
6379;DHT22;3222;48.858;10.128;2022-11-15T17:39:25;11.60;99.90
6379;DHT22;3222;48.858;10.128;2022-11-15T17:41:51;11.50;99.90
6379;DHT22;3222;48.858;10.128;2022-11-15T17:44:16;11.70;99.90
6379;DHT22;3222;48.858;10.128;2022-11-15T17:46:42;11.60;99.90
6379;DHT22;3222;48.858;10.128;2022-11-15T17:49:08;11.60;99.90
6379;DHT22;3222;48.858;10.128;2022-11-15T17:51:34;11.60;99.90
6379;DHT22;3222;48.858;10.128;2022-11-15T17:54:00;11.80;99.90
6379;DHT22;3222;48.858;10.128;2022-11-15T17:56:27;11.80;99.90
6379;DHT22;3222;48.858;10.128;2022-11-15T17:58:57;11.90;99.90
6379;DHT22;3222;48.858;10.128;2022-11-15T18:03:53;11.80;99.90
6379;DHT22;3222;48.858;10.128;2022-11-15T18:06:22;11.60;99.90
6379;DHT22;3222;48.858;10.128;2022-11-15T18:08:49;11.50;99.90
6379;DHT22;3222;48.858;10.128;2022-11-15T18:11:17;11.50;99.90
6379;DHT22;3222;48.858;10.128;2022-11-15T18:13:45;11.60;99.90
6379;DHT22;3222;48.858;10.128;2022-11-15T18:16:14;11.70;99.90
6379;DHT22;3222;48.858;10.128;2022-11-15T18:18:40;11.70;99.90
6379;DHT22;3222;48.858;10.128;2022-11-15T18:21:11;11.70;99.90
6379;DHT22;3222;48.858;10.128;2022-11-15T18:23:37;11.70;99.90
6379;DHT22;3222;48.858;10.128;2022-11-15T18:26:04;11.80;99.90
6379;DHT22;3222;48.858;10.128;2022-11-15T18:28:32;11.70;99.90
6379;DHT22;3222;48.858;10.128;2022-11-15T18:30:59;11.70;99.90
6379;DHT22;3222;48.858;10.128;2022-11-15T18:33:26;11.70;99.90
6379;DHT22;3222;48.858;10.128;2022-11-15T18:36:03;11.60;99.90
6379;DHT22;3222;48.858;10.128;2022-11-15T18:38:29;11.60;99.90
6379;DHT22;3222;48.858;10.128;2022-11-15T18:41:06;11.60;99.90
6379;DHT22;3222;48.858;10.128;2022-11-15T18:43:32;11.50;99.90
6379;DHT22;3222;48.858;10.128;2022-11-15T18:46:18;11.50;99.90
6379;DHT22;3222;48.858;10.128;2022-11-15T18:48:44;11.50;99.90
6379;DHT22;3222;48.858;10.128;2022-11-15T18:51:14;11.50;99.90
6379;DHT22;3222;48.858;10.128;2022-11-15T18:53:41;11.50;99.90
6379;DHT22;3222;48.858;10.128;2022-11-15T18:56:13;11.50;99.90
6379;DHT22;3222;48.858;10.128;2022-11-15T18:59:00;11.60;99.90
6379;DHT22;3222;48.858;10.128;2022-11-15T19:01:28;11.50;99.90
6379;DHT22;3222;48.858;10.128;2022-11-15T19:03:56;11.40;99.90
6379;DHT22;3222;48.858;10.128;2022-11-15T19:06:25;11.40;99.90
6379;DHT22;3222;48.858;10.128;2022-11-15T19:08:52;11.40;99.90
6379;DHT22;3222;48.858;10.128;2022-11-15T19:11:24;11.40;99.90
6379;DHT22;3222;48.858;10.128;2022-11-15T19:13:57;11.50;99.90
6379;DHT22;3222;48.858;10.128;2022-11-15T19:16:24;11.40;99.90
6379;DHT22;3222;48.858;10.128;2022-11-15T19:18:57;11.50;99.90
6379;DHT22;3222;48.858;10.128;2022-11-15T19:21:24;11.50;99.90
6379;DHT22;3222;48.858;10.128;2022-11-15T19:23:50;11.40;99.90
6379;DHT22;3222;48.858;10.128;2022-11-15T19:26:19;11.40;99.90
6379;DHT22;3222;48.858;10.128;2022-11-15T19:28:53;11.50;99.90
6379;DHT22;3222;48.858;10.128;2022-11-15T19:31:20;11.50;99.90
6379;DHT22;3222;48.858;10.128;2022-11-15T19:33:46;11.50;99.90